sensor_id;sensor_type;location;lat;lon;timestamp;temperature;humidity
52273;DHT22;38227;50.942;4.016;2023-05-20T00:02:02;14.30;99.90
52273;DHT22;38227;50.942;4.016;2023-05-20T00:04:30;14.30;99.90
52273;DHT22;38227;50.942;4.016;2023-05-20T00:06:58;14.30;99.90
52273;DHT22;38227;50.942;4.016;2023-05-20T00:09:27;14.30;99.90
52273;DHT22;38227;50.942;4.016;2023-05-20T00:11:55;14.30;99.90
52273;DHT22;38227;50.942;4.016;2023-05-20T00:14:24;14.20;99.90
52273;DHT22;38227;50.942;4.016;2023-05-20T00:17:01;14.20;99.90
52273;DHT22;38227;50.942;4.016;2023-05-20T00:19:30;14.20;99.90
52273;DHT22;38227;50.942;4.016;2023-05-20T00:21:58;14.10;99.90
52273;DHT22;38227;50.942;4.016;2023-05-20T00:24:30;14.10;99.90
52273;DHT22;38227;50.942;4.016;2023-05-20T00:26:58;14.10;99.90
52273;DHT22;38227;50.942;4.016;2023-05-20T00:29:27;14.00;99.90
52273;DHT22;38227;50.942;4.016;2023-05-20T00:31:55;14.00;99.90
52273;DHT22;38227;50.942;4.016;2023-05-20T00:34:27;14.00;99.90
52273;DHT22;38227;50.942;4.016;2023-05-20T00:36:55;14.00;99.90
52273;DHT22;38227;50.942;4.016;2023-05-20T00:39:34;13.90;99.90
52273;DHT22;38227;50.942;4.016;2023-05-20T00:42:06;13.90;99.90
52273;DHT22;38227;50.942;4.016;2023-05-20T00:44:44;13.80;99.90
52273;DHT22;38227;50.942;4.016;2023-05-20T00:47:13;13.90;99.90
52273;DHT22;38227;50.942;4.016;2023-05-20T00:49:41;13.90;99.90
52273;DHT22;38227;50.942;4.016;2023-05-20T00:52:10;13.90;99.90
52273;DHT22;38227;50.942;4.016;2023-05-20T00:54:39;13.90;99.90
52273;DHT22;38227;50.942;4.016;2023-05-20T00:57:07;13.90;99.90
52273;DHT22;38227;50.942;4.016;2023-05-20T00:59:39;13.90;99.90
52273;DHT22;38227;50.942;4.016;2023-05-20T01:02:08;13.80;99.90
52273;DHT22;38227;50.942;4.016;2023-05-20T01:04:38;13.80;99.90
52273;DHT22;38227;50.942;4.016;2023-05-20T01:07:11;13.80;99.90
52273;DHT22;38227;50.942;4.016;2023-05-20T01:09:40;13.70;99.90
52273;DHT22;38227;50.942;4.016;2023-05-20T01:12:24;13.70;99.90
52273;DHT22;38227;50.942;4.016;2023-05-20T01:15:06;13.60;99.90
52273;DHT22;38227;50.942;4.016;2023-05-20T01:17:42;13.50;99.90
52273;DHT22;38227;50.942;4.016;2023-05-20T01:20:14;13.50;99.90
52273;DHT22;38227;50.942;4.016;2023-05-20T01:22:53;13.50;99.90
52273;DHT22;38227;50.942;4.016;2023-05-20T01:25:22;13.40;99.90
52273;DHT22;38227;50.942;4.016;2023-05-20T01:27:51;13.50;99.90
52273;DHT22;38227;50.942;4.016;2023-05-20T01:30:20;13.40;99.90
52273;DHT22;38227;50.942;4.016;2023-05-20T01:32:53;13.40;99.90
52273;DHT22;38227;50.942;4.016;2023-05-20T01:35:22;13.30;99.90
52273;DHT22;38227;50.942;4.016;2023-05-20T01:37:51;13.20;99.90
52273;DHT22;38227;50.942;4.016;2023-05-20T01:40:21;13.20;99.90
52273;DHT22;38227;50.942;4.016;2023-05-20T01:42:52;13.10;99.90
52273;DHT22;38227;50.942;4.016;2023-05-20T01:45:23;13.10;99.90
52273;DHT22;38227;50.942;4.016;2023-05-20T01:47:51;13.10;99.90
52273;DHT22;38227;50.942;4.016;2023-05-20T01:50:23;13.10;99.90
52273;DHT22;38227;50.942;4.016;2023-05-20T01:52:51;13.20;99.90
52273;DHT22;38227;50.942;4.016;2023-05-20T01:55:23;13.20;99.90
52273;DHT22;38227;50.942;4.016;2023-05-20T01:57:51;13.20;99.90
52273;DHT22;38227;50.942;4.016;2023-05-20T02:00:25;13.20;99.90
52273;DHT22;38227;50.942;4.016;2023-05-20T02:02:53;13.20;99.90
52273;DHT22;38227;50.942;4.016;2023-05-20T02:05:26;13.20;99.90
52273;DHT22;38227;50.942;4.016;2023-05-20T02:07:54;13.10;99.90
52273;DHT22;38227;50.942;4.016;2023-05-20T02:10:26;13.10;99.90
52273;DHT22;38227;50.942;4.016;2023-05-20T02:12:55;13.10;99.90
52273;DHT22;38227;50.942;4.016;2023-05-20T02:15:32;13.10;99.90
52273;DHT22;38227;50.942;4.016;2023-05-20T02:18:00;13.10;99.90
52273;DHT22;38227;50.942;4.016;2023-05-20T02:20:30;13.00;99.90
52273;DHT22;38227;50.942;4.016;2023-05-20T02:23:02;13.00;99.90
52273;DHT22;38227;50.942;4.016;2023-05-20T02:25:50;13.00;99.90
52273;DHT22;38227;50.942;4.016;2023-05-20T02:28:18;12.90;99.90
52273;DHT22;38227;50.942;4.016;2023-05-20T02:30:51;12.70;99.90
52273;DHT22;38227;50.942;4.016;2023-05-20T02:33:19;12.60;99.90
52273;DHT22;38227;50.942;4.016;2023-05-20T02:35:51;12.50;99.90
52273;DHT22;38227;50.942;4.016;2023-05-20T02:38:19;12.50;99.90
52273;DHT22;38227;50.942;4.016;2023-05-20T02:40:48;12.60;99.90
52273;DHT22;38227;50.942;4.016;2023-05-20T02:43:20;12.70;99.90
52273;DHT22;38227;50.942;4.016;2023-05-20T02:45:48;12.60;99.90
52273;DHT22;38227;50.942;4.016;2023-05-20T02:48:20;12.40;99.90
52273;DHT22;38227;50.942;4.016;2023-05-20T02:50:48;12.40;99.90
52273;DHT22;38227;50.942;4.016;2023-05-20T02:53:16;12.40;99.90
52273;DHT22;38227;50.942;4.016;2023-05-20T02:55:45;12.30;99.90
52273;DHT22;38227;50.942;4.016;2023-05-20T02:58:13;12.20;99.90
52273;DHT22;38227;50.942;4.016;2023-05-20T03:01:02;12.30;99.90
52273;DHT22;38227;50.942;4.016;2023-05-20T03:03:34;12.30;99.90
52273;DHT22;38227;50.942;4.016;2023-05-20T03:06:06;12.20;99.90
52273;DHT22;38227;50.942;4.016;2023-05-20T03:08:34;12.10;99.90
52273;DHT22;38227;50.942;4.016;2023-05-20T03:11:14;12.10;99.90
52273;DHT22;38227;50.942;4.016;2023-05-20T03:13:42;12.10;99.90
52273;DHT22;38227;50.942;4.016;2023-05-20T03:16:10;12.20;99.90
52273;DHT22;38227;50.942;4.016;2023-05-20T03:18:42;12.20;99.90
52273;DHT22;38227;50.942;4.016;2023-05-20T03:21:11;12.20;99.90
52273;DHT22;38227;50.942;4.016;2023-05-20T03:23:42;12.30;99.90
52273;DHT22;38227;50.942;4.016;2023-05-20T03:26:11;12.30;99.90
52273;DHT22;38227;50.942;4.016;2023-05-20T03:28:50;12.20;99.90
52273;DHT22;38227;50.942;4.016;2023-05-20T03:31:18;12.10;99.90
52273;DHT22;38227;50.942;4.016;2023-05-20T03:33:56;12.20;99.90
52273;DHT22;38227;50.942;4.016;2023-05-20T03:36:25;12.20;99.90
52273;DHT22;38227;50.942;4.016;2023-05-20T03:38:57;12.20;99.90
52273;DHT22;38227;50.942;4.016;2023-05-20T03:41:25;12.30;99.90
52273;DHT22;38227;50.942;4.016;2023-05-20T03:43:53;12.20;99.90
52273;DHT22;38227;50.942;4.016;2023-05-20T03:46:25;12.10;99.90
52273;DHT22;38227;50.942;4.016;2023-05-20T03:48:53;12.10;99.90
52273;DHT22;38227;50.942;4.016;2023-05-20T03:51:25;12.00;99.90
52273;DHT22;38227;50.942;4.016;2023-05-20T03:53:57;12.00;99.90
52273;DHT22;38227;50.942;4.016;2023-05-20T03:56:29;11.90;99.90
52273;DHT22;38227;50.942;4.016;2023-05-20T03:58:58;12.00;99.90
52273;DHT22;38227;50.942;4.016;2023-05-20T04:01:36;12.00;99.90
52273;DHT22;38227;50.942;4.016;2023-05-20T04:04:04;11.90;99.90
52273;DHT22;38227;50.942;4.016;2023-05-20T04:06:42;11.80;99.90
52273;DHT22;38227;50.942;4.016;2023-05-20T04:09:10;11.80;99.90
52273;DHT22;38227;50.942;4.016;2023-05-20T04:11:42;11.90;99.90
52273;DHT22;38227;50.942;4.016;2023-05-20T04:14:10;12.00;99.90
52273;DHT22;38227;50.942;4.016;2023-05-20T04:16:40;12.20;99.90
52273;DHT22;38227;50.942;4.016;2023-05-20T04:19:08;12.20;99.90
52273;DHT22;38227;50.942;4.016;2023-05-20T04:21:38;12.20;99.90
52273;DHT22;38227;50.942;4.016;2023-05-20T04:24:12;12.30;99.90
52273;DHT22;38227;50.942;4.016;2023-05-20T04:26:40;12.50;99.90
52273;DHT22;38227;50.942;4.016;2023-05-20T04:29:12;12.70;99.90
52273;DHT22;38227;50.942;4.016;2023-05-20T04:31:40;12.70;99.90
52273;DHT22;38227;50.942;4.016;2023-05-20T04:34:12;12.70;99.90
52273;DHT22;38227;50.942;4.016;2023-05-20T04:36:40;12.70;99.90
52273;DHT22;38227;50.942;4.016;2023-05-20T04:39:12;12.80;99.90
52273;DHT22;38227;50.942;4.016;2023-05-20T04:41:40;12.80;99.90
52273;DHT22;38227;50.942;4.016;2023-05-20T04:44:18;13.00;99.90
52273;DHT22;38227;50.942;4.016;2023-05-20T04:46:46;13.10;99.90
52273;DHT22;38227;50.942;4.016;2023-05-20T04:49:18;13.20;99.90
52273;DHT22;38227;50.942;4.016;2023-05-20T04:51:46;13.50;99.90
52273;DHT22;38227;50.942;4.016;2023-05-20T04:54:14;13.60;99.90
52273;DHT22;38227;50.942;4.016;2023-05-20T04:56:46;13.60;99.90
52273;DHT22;38227;50.942;4.016;2023-05-20T04:59:15;13.80;99.90
52273;DHT22;38227;50.942;4.016;2023-05-20T05:01:50;13.80;99.90
52273;DHT22;38227;50.942;4.016;2023-05-20T05:04:18;13.90;99.90
52273;DHT22;38227;50.942;4.016;2023-05-20T05:06:48;14.30;99.90
52273;DHT22;38227;50.942;4.016;2023-05-20T05:09:17;14.90;99.90
52273;DHT22;38227;50.942;4.016;2023-05-20T05:11:48;16.10;99.90
52273;DHT22;38227;50.942;4.016;2023-05-20T05:14:16;17.70;98.70
52273;DHT22;38227;50.942;4.016;2023-05-20T05:16:54;18.90;96.50
52273;DHT22;38227;50.942;4.016;2023-05-20T05:19:23;20.00;93.70
52273;DHT22;38227;50.942;4.016;2023-05-20T05:21:55;20.60;91.60
52273;DHT22;38227;50.942;4.016;2023-05-20T05:24:22;21.30;90.50
52273;DHT22;38227;50.942;4.016;2023-05-20T05:26:53;21.70;88.90
52273;DHT22;38227;50.942;4.016;2023-05-20T05:29:23;22.20;86.60
52273;DHT22;38227;50.942;4.016;2023-05-20T05:31:55;22.20;85.40
52273;DHT22;38227;50.942;4.016;2023-05-20T05:34:23;22.40;84.70
52273;DHT22;38227;50.942;4.016;2023-05-20T05:36:57;22.80;83.20
52273;DHT22;38227;50.942;4.016;2023-05-20T05:39:25;22.50;83.10
52273;DHT22;38227;50.942;4.016;2023-05-20T05:42:03;21.50;84.70
52273;DHT22;38227;50.942;4.016;2023-05-20T05:44:32;21.00;87.60
52273;DHT22;38227;50.942;4.016;2023-05-20T05:47:01;20.70;88.60
52273;DHT22;38227;50.942;4.016;2023-05-20T05:49:31;21.20;87.60
52273;DHT22;38227;50.942;4.016;2023-05-20T05:52:03;22.00;85.60
52273;DHT22;38227;50.942;4.016;2023-05-20T05:54:31;23.40;81.70
52273;DHT22;38227;50.942;4.016;2023-05-20T05:57:03;23.90;78.50
52273;DHT22;38227;50.942;4.016;2023-05-20T05:59:32;23.50;79.40
52273;DHT22;38227;50.942;4.016;2023-05-20T06:02:00;22.70;80.50
52273;DHT22;38227;50.942;4.016;2023-05-20T06:04:29;21.90;83.70
52273;DHT22;38227;50.942;4.016;2023-05-20T06:06:57;21.90;84.20
52273;DHT22;38227;50.942;4.016;2023-05-20T06:09:30;23.10;80.80
52273;DHT22;38227;50.942;4.016;2023-05-20T06:11:58;23.90;79.00
52273;DHT22;38227;50.942;4.016;2023-05-20T06:14:37;24.90;74.90
52273;DHT22;38227;50.942;4.016;2023-05-20T06:17:06;25.70;73.10
52273;DHT22;38227;50.942;4.016;2023-05-20T06:19:34;25.70;71.20
52273;DHT22;38227;50.942;4.016;2023-05-20T06:22:06;26.40;70.00
52273;DHT22;38227;50.942;4.016;2023-05-20T06:24:34;27.10;67.70
52273;DHT22;38227;50.942;4.016;2023-05-20T06:27:02;27.00;67.10
52273;DHT22;38227;50.942;4.016;2023-05-20T06:29:41;25.90;67.50
52273;DHT22;38227;50.942;4.016;2023-05-20T06:32:09;25.30;69.90
52273;DHT22;38227;50.942;4.016;2023-05-20T06:34:47;25.70;68.90
52273;DHT22;38227;50.942;4.016;2023-05-20T06:37:15;26.50;67.30
52273;DHT22;38227;50.942;4.016;2023-05-20T06:39:49;26.80;65.90
52273;DHT22;38227;50.942;4.016;2023-05-20T06:42:20;27.70;65.20
52273;DHT22;38227;50.942;4.016;2023-05-20T06:44:51;27.70;64.00
52273;DHT22;38227;50.942;4.016;2023-05-20T06:47:23;28.00;62.70
52273;DHT22;38227;50.942;4.016;2023-05-20T06:49:51;28.10;61.50
52273;DHT22;38227;50.942;4.016;2023-05-20T06:52:19;28.80;60.60
52273;DHT22;38227;50.942;4.016;2023-05-20T06:54:57;28.10;62.00
52273;DHT22;38227;50.942;4.016;2023-05-20T06:57:35;28.90;60.80
52273;DHT22;38227;50.942;4.016;2023-05-20T07:00:05;28.70;60.60
52273;DHT22;38227;50.942;4.016;2023-05-20T07:02:36;28.70;60.80
52273;DHT22;38227;50.942;4.016;2023-05-20T07:05:06;28.90;59.40
52273;DHT22;38227;50.942;4.016;2023-05-20T07:07:35;29.10;59.60
52273;DHT22;38227;50.942;4.016;2023-05-20T07:10:08;29.50;58.80
52273;DHT22;38227;50.942;4.016;2023-05-20T07:12:36;29.60;57.90
52273;DHT22;38227;50.942;4.016;2023-05-20T07:15:06;29.40;57.50
52273;DHT22;38227;50.942;4.016;2023-05-20T07:17:36;29.50;57.30
52273;DHT22;38227;50.942;4.016;2023-05-20T07:20:06;29.60;58.30
52273;DHT22;38227;50.942;4.016;2023-05-20T07:22:35;29.60;59.10
52273;DHT22;38227;50.942;4.016;2023-05-20T07:25:05;29.40;57.50
52273;DHT22;38227;50.942;4.016;2023-05-20T07:27:38;28.90;58.30
52273;DHT22;38227;50.942;4.016;2023-05-20T07:30:08;29.20;57.70
52273;DHT22;38227;50.942;4.016;2023-05-20T07:32:39;29.80;57.30
52273;DHT22;38227;50.942;4.016;2023-05-20T07:35:09;30.50;56.50
52273;DHT22;38227;50.942;4.016;2023-05-20T07:37:41;30.50;56.70
52273;DHT22;38227;50.942;4.016;2023-05-20T07:40:10;29.80;56.10
52273;DHT22;38227;50.942;4.016;2023-05-20T07:42:49;29.10;58.00
52273;DHT22;38227;50.942;4.016;2023-05-20T07:45:17;29.40;57.40
52273;DHT22;38227;50.942;4.016;2023-05-20T07:47:49;29.70;56.50
52273;DHT22;38227;50.942;4.016;2023-05-20T07:50:17;29.60;55.90
52273;DHT22;38227;50.942;4.016;2023-05-20T07:52:55;29.50;56.70
52273;DHT22;38227;50.942;4.016;2023-05-20T07:55:23;29.60;56.30
52273;DHT22;38227;50.942;4.016;2023-05-20T07:57:55;29.60;56.40
52273;DHT22;38227;50.942;4.016;2023-05-20T08:00:23;29.40;57.50
52273;DHT22;38227;50.942;4.016;2023-05-20T08:02:55;30.70;54.80
52273;DHT22;38227;50.942;4.016;2023-05-20T08:05:27;30.50;56.20
52273;DHT22;38227;50.942;4.016;2023-05-20T08:07:59;30.40;55.80
52273;DHT22;38227;50.942;4.016;2023-05-20T08:10:31;29.60;55.20
52273;DHT22;38227;50.942;4.016;2023-05-20T08:13:09;30.00;54.70
52273;DHT22;38227;50.942;4.016;2023-05-20T08:15:37;29.80;56.70
52273;DHT22;38227;50.942;4.016;2023-05-20T08:18:08;29.90;54.90
52273;DHT22;38227;50.942;4.016;2023-05-20T08:20:36;29.60;55.40
52273;DHT22;38227;50.942;4.016;2023-05-20T08:23:14;29.80;55.20
52273;DHT22;38227;50.942;4.016;2023-05-20T08:25:43;30.00;54.60
52273;DHT22;38227;50.942;4.016;2023-05-20T08:28:17;30.30;53.80
52273;DHT22;38227;50.942;4.016;2023-05-20T08:30:47;30.20;54.00
52273;DHT22;38227;50.942;4.016;2023-05-20T08:33:20;30.90;53.70
52273;DHT22;38227;50.942;4.016;2023-05-20T08:35:48;30.50;53.00
52273;DHT22;38227;50.942;4.016;2023-05-20T08:38:24;30.10;53.90
52273;DHT22;38227;50.942;4.016;2023-05-20T08:41:01;30.10;53.20
52273;DHT22;38227;50.942;4.016;2023-05-20T08:43:33;29.80;53.30
52273;DHT22;38227;50.942;4.016;2023-05-20T08:46:01;29.40;53.70
52273;DHT22;38227;50.942;4.016;2023-05-20T08:48:35;29.30;54.30
52273;DHT22;38227;50.942;4.016;2023-05-20T08:51:05;30.10;53.40
52273;DHT22;38227;50.942;4.016;2023-05-20T08:53:40;30.10;53.40
52273;DHT22;38227;50.942;4.016;2023-05-20T08:56:08;29.50;54.80
52273;DHT22;38227;50.942;4.016;2023-05-20T08:58:41;29.20;55.20
52273;DHT22;38227;50.942;4.016;2023-05-20T09:01:15;29.20;54.40
52273;DHT22;38227;50.942;4.016;2023-05-20T09:03:43;29.20;55.50
52273;DHT22;38227;50.942;4.016;2023-05-20T09:06:16;29.10;54.70
52273;DHT22;38227;50.942;4.016;2023-05-20T09:08:47;29.50;53.10
52273;DHT22;38227;50.942;4.016;2023-05-20T09:11:19;29.80;52.30
52273;DHT22;38227;50.942;4.016;2023-05-20T09:13:49;30.40;51.60
52273;DHT22;38227;50.942;4.016;2023-05-20T09:16:20;29.90;52.30
52273;DHT22;38227;50.942;4.016;2023-05-20T09:18:56;29.60;52.90
52273;DHT22;38227;50.942;4.016;2023-05-20T09:21:41;29.20;53.50
52273;DHT22;38227;50.942;4.016;2023-05-20T09:24:14;29.30;53.50
52273;DHT22;38227;50.942;4.016;2023-05-20T09:26:41;29.20;52.60
52273;DHT22;38227;50.942;4.016;2023-05-20T09:29:09;29.60;51.90
52273;DHT22;38227;50.942;4.016;2023-05-20T09:31:40;29.50;51.60
52273;DHT22;38227;50.942;4.016;2023-05-20T09:34:11;29.30;51.50
52273;DHT22;38227;50.942;4.016;2023-05-20T09:36:42;29.20;50.90
52273;DHT22;38227;50.942;4.016;2023-05-20T09:39:14;29.70;51.10
52273;DHT22;38227;50.942;4.016;2023-05-20T09:42:05;28.70;53.10
52273;DHT22;38227;50.942;4.016;2023-05-20T09:44:34;29.30;52.20
52273;DHT22;38227;50.942;4.016;2023-05-20T09:47:02;29.30;51.10
52273;DHT22;38227;50.942;4.016;2023-05-20T09:49:36;29.00;51.70
52273;DHT22;38227;50.942;4.016;2023-05-20T09:52:07;29.40;50.90
52273;DHT22;38227;50.942;4.016;2023-05-20T09:54:39;29.70;51.30
52273;DHT22;38227;50.942;4.016;2023-05-20T09:57:08;29.80;51.60
52273;DHT22;38227;50.942;4.016;2023-05-20T09:59:37;29.80;50.90
52273;DHT22;38227;50.942;4.016;2023-05-20T10:02:08;29.40;51.40
52273;DHT22;38227;50.942;4.016;2023-05-20T10:04:39;29.40;52.10
52273;DHT22;38227;50.942;4.016;2023-05-20T10:10:33;29.00;53.00
52273;DHT22;38227;50.942;4.016;2023-05-20T10:19:48;27.60;53.70
52273;DHT22;38227;50.942;4.016;2023-05-20T10:22:26;27.40;54.50
52273;DHT22;38227;50.942;4.016;2023-05-20T10:25:04;27.70;54.50
52273;DHT22;38227;50.942;4.016;2023-05-20T10:27:46;28.20;52.90
52273;DHT22;38227;50.942;4.016;2023-05-20T10:30:20;28.80;52.80
52273;DHT22;38227;50.942;4.016;2023-05-20T10:32:52;28.70;52.50
52273;DHT22;38227;50.942;4.016;2023-05-20T10:35:22;28.00;54.50
52273;DHT22;38227;50.942;4.016;2023-05-20T10:37:53;27.60;54.70
52273;DHT22;38227;50.942;4.016;2023-05-20T10:40:24;27.40;55.00
52273;DHT22;38227;50.942;4.016;2023-05-20T10:42:52;27.20;55.70
52273;DHT22;38227;50.942;4.016;2023-05-20T10:45:28;27.10;54.80
52273;DHT22;38227;50.942;4.016;2023-05-20T10:48:07;26.50;56.00
52273;DHT22;38227;50.942;4.016;2023-05-20T10:50:36;26.30;56.40
52273;DHT22;38227;50.942;4.016;2023-05-20T10:53:06;26.00;58.10
52273;DHT22;38227;50.942;4.016;2023-05-20T10:55:38;26.00;58.00
52273;DHT22;38227;50.942;4.016;2023-05-20T10:58:10;25.60;58.70
52273;DHT22;38227;50.942;4.016;2023-05-20T11:00:38;25.40;58.50
52273;DHT22;38227;50.942;4.016;2023-05-20T11:03:06;25.20;58.80
52273;DHT22;38227;50.942;4.016;2023-05-20T11:05:35;24.90;58.20
52273;DHT22;38227;50.942;4.016;2023-05-20T11:08:11;24.90;59.10
52273;DHT22;38227;50.942;4.016;2023-05-20T11:10:41;24.90;58.20
52273;DHT22;38227;50.942;4.016;2023-05-20T11:13:12;24.90;58.50
52273;DHT22;38227;50.942;4.016;2023-05-20T11:15:42;24.90;58.90
52273;DHT22;38227;50.942;4.016;2023-05-20T11:18:25;25.00;58.10
52273;DHT22;38227;50.942;4.016;2023-05-20T11:21:00;24.80;58.20
52273;DHT22;38227;50.942;4.016;2023-05-20T11:23:38;24.50;59.70
52273;DHT22;38227;50.942;4.016;2023-05-20T11:26:10;24.70;58.80
52273;DHT22;38227;50.942;4.016;2023-05-20T11:28:39;24.70;60.20
52273;DHT22;38227;50.942;4.016;2023-05-20T11:31:08;24.70;60.10
52273;DHT22;38227;50.942;4.016;2023-05-20T11:33:42;24.70;59.50
52273;DHT22;38227;50.942;4.016;2023-05-20T11:36:19;24.90;60.70
52273;DHT22;38227;50.942;4.016;2023-05-20T11:38:50;24.70;59.90
52273;DHT22;38227;50.942;4.016;2023-05-20T11:41:25;24.50;61.60
52273;DHT22;38227;50.942;4.016;2023-05-20T11:43:59;24.70;60.10
52273;DHT22;38227;50.942;4.016;2023-05-20T11:46:40;24.60;61.40
52273;DHT22;38227;50.942;4.016;2023-05-20T11:49:09;24.40;59.80
52273;DHT22;38227;50.942;4.016;2023-05-20T11:51:42;24.40;60.40
52273;DHT22;38227;50.942;4.016;2023-05-20T11:54:11;24.50;62.70
52273;DHT22;38227;50.942;4.016;2023-05-20T11:56:39;24.70;61.10
52273;DHT22;38227;50.942;4.016;2023-05-20T11:59:09;24.60;59.90
52273;DHT22;38227;50.942;4.016;2023-05-20T12:01:40;24.50;60.60
52273;DHT22;38227;50.942;4.016;2023-05-20T12:04:12;24.50;60.30
52273;DHT22;38227;50.942;4.016;2023-05-20T12:06:40;24.50;61.70
52273;DHT22;38227;50.942;4.016;2023-05-20T12:09:10;24.50;60.60
52273;DHT22;38227;50.942;4.016;2023-05-20T12:11:38;24.50;62.10
52273;DHT22;38227;50.942;4.016;2023-05-20T12:14:08;24.20;61.60
52273;DHT22;38227;50.942;4.016;2023-05-20T12:16:36;24.10;63.10
52273;DHT22;38227;50.942;4.016;2023-05-20T12:19:05;24.00;62.90
52273;DHT22;38227;50.942;4.016;2023-05-20T12:21:43;24.10;62.10
52273;DHT22;38227;50.942;4.016;2023-05-20T12:24:12;24.10;62.50
52273;DHT22;38227;50.942;4.016;2023-05-20T12:26:45;24.30;62.90
52273;DHT22;38227;50.942;4.016;2023-05-20T12:29:13;24.30;64.00
52273;DHT22;38227;50.942;4.016;2023-05-20T12:31:42;24.10;64.20
52273;DHT22;38227;50.942;4.016;2023-05-20T12:34:14;24.10;63.00
52273;DHT22;38227;50.942;4.016;2023-05-20T12:36:42;24.20;64.10
52273;DHT22;38227;50.942;4.016;2023-05-20T12:39:12;24.40;63.90
52273;DHT22;38227;50.942;4.016;2023-05-20T12:41:53;24.40;63.80
52273;DHT22;38227;50.942;4.016;2023-05-20T12:44:20;24.30;64.20
52273;DHT22;38227;50.942;4.016;2023-05-20T12:46:53;24.10;64.60
52273;DHT22;38227;50.942;4.016;2023-05-20T12:49:21;24.40;63.20
52273;DHT22;38227;50.942;4.016;2023-05-20T12:51:53;24.40;62.60
52273;DHT22;38227;50.942;4.016;2023-05-20T12:54:21;24.50;63.50
52273;DHT22;38227;50.942;4.016;2023-05-20T12:56:55;24.60;63.20
52273;DHT22;38227;50.942;4.016;2023-05-20T12:59:34;24.80;62.70
52273;DHT22;38227;50.942;4.016;2023-05-20T13:02:05;24.80;64.40
52273;DHT22;38227;50.942;4.016;2023-05-20T13:04:37;25.10;61.60
52273;DHT22;38227;50.942;4.016;2023-05-20T13:07:05;24.90;62.40
52273;DHT22;38227;50.942;4.016;2023-05-20T13:09:34;25.10;62.40
52273;DHT22;38227;50.942;4.016;2023-05-20T13:12:06;25.30;62.40
52273;DHT22;38227;50.942;4.016;2023-05-20T13:14:35;25.20;61.10
52273;DHT22;38227;50.942;4.016;2023-05-20T13:17:07;25.20;60.20
52273;DHT22;38227;50.942;4.016;2023-05-20T13:19:36;25.10;61.00
52273;DHT22;38227;50.942;4.016;2023-05-20T13:22:14;25.20;61.10
52273;DHT22;38227;50.942;4.016;2023-05-20T13:24:51;24.40;64.20
52273;DHT22;38227;50.942;4.016;2023-05-20T13:27:31;24.20;63.80
52273;DHT22;38227;50.942;4.016;2023-05-20T13:30:00;24.40;64.00
52273;DHT22;38227;50.942;4.016;2023-05-20T13:32:32;24.20;64.40
52273;DHT22;38227;50.942;4.016;2023-05-20T13:35:00;24.00;65.40
52273;DHT22;38227;50.942;4.016;2023-05-20T13:37:32;23.90;65.50
52273;DHT22;38227;50.942;4.016;2023-05-20T13:40:00;23.90;65.50
52273;DHT22;38227;50.942;4.016;2023-05-20T13:42:39;24.10;64.80
52273;DHT22;38227;50.942;4.016;2023-05-20T13:45:08;24.10;65.20
52273;DHT22;38227;50.942;4.016;2023-05-20T13:47:41;24.20;64.40
52273;DHT22;38227;50.942;4.016;2023-05-20T13:50:11;24.20;63.60
52273;DHT22;38227;50.942;4.016;2023-05-20T13:52:43;24.50;63.90
52273;DHT22;38227;50.942;4.016;2023-05-20T13:55:48;24.40;64.20
52273;DHT22;38227;50.942;4.016;2023-05-20T13:58:20;24.50;63.70
52273;DHT22;38227;50.942;4.016;2023-05-20T14:00:48;24.50;64.20
52273;DHT22;38227;50.942;4.016;2023-05-20T14:03:26;24.40;65.20
52273;DHT22;38227;50.942;4.016;2023-05-20T14:05:59;24.40;64.70
52273;DHT22;38227;50.942;4.016;2023-05-20T14:08:32;24.40;64.60
52273;DHT22;38227;50.942;4.016;2023-05-20T14:11:04;24.30;65.30
52273;DHT22;38227;50.942;4.016;2023-05-20T14:13:31;24.10;65.60
52273;DHT22;38227;50.942;4.016;2023-05-20T14:16:00;24.00;65.70
52273;DHT22;38227;50.942;4.016;2023-05-20T14:18:31;24.10;65.10
52273;DHT22;38227;50.942;4.016;2023-05-20T14:20:59;24.20;65.40
52273;DHT22;38227;50.942;4.016;2023-05-20T14:23:27;24.30;66.00
52273;DHT22;38227;50.942;4.016;2023-05-20T14:26:05;24.10;65.30
52273;DHT22;38227;50.942;4.016;2023-05-20T14:28:33;24.10;64.50
52273;DHT22;38227;50.942;4.016;2023-05-20T14:31:03;23.70;64.50
52273;DHT22;38227;50.942;4.016;2023-05-20T14:33:33;23.60;66.10
52273;DHT22;38227;50.942;4.016;2023-05-20T14:36:02;23.40;65.50
52273;DHT22;38227;50.942;4.016;2023-05-20T14:38:34;23.30;66.50
52273;DHT22;38227;50.942;4.016;2023-05-20T14:41:02;23.60;65.90
52273;DHT22;38227;50.942;4.016;2023-05-20T14:43:34;23.60;66.40
52273;DHT22;38227;50.942;4.016;2023-05-20T14:46:04;23.50;67.90
52273;DHT22;38227;50.942;4.016;2023-05-20T14:48:45;23.70;68.20
52273;DHT22;38227;50.942;4.016;2023-05-20T14:51:13;23.80;66.90
52273;DHT22;38227;50.942;4.016;2023-05-20T14:53:46;23.80;66.40
52273;DHT22;38227;50.942;4.016;2023-05-20T14:56:14;23.90;66.80
52273;DHT22;38227;50.942;4.016;2023-05-20T14:58:43;24.00;65.60
52273;DHT22;38227;50.942;4.016;2023-05-20T15:01:15;24.00;65.90
52273;DHT22;38227;50.942;4.016;2023-05-20T15:03:43;24.00;66.60
52273;DHT22;38227;50.942;4.016;2023-05-20T15:06:15;24.00;66.60
52273;DHT22;38227;50.942;4.016;2023-05-20T15:08:44;23.90;66.90
52273;DHT22;38227;50.942;4.016;2023-05-20T15:11:18;23.90;66.70
52273;DHT22;38227;50.942;4.016;2023-05-20T15:13:46;24.00;67.20
52273;DHT22;38227;50.942;4.016;2023-05-20T15:16:17;23.80;68.40
52273;DHT22;38227;50.942;4.016;2023-05-20T15:18:52;23.90;67.60
52273;DHT22;38227;50.942;4.016;2023-05-20T15:21:25;24.10;66.90
52273;DHT22;38227;50.942;4.016;2023-05-20T15:23:54;24.20;65.70
52273;DHT22;38227;50.942;4.016;2023-05-20T15:26:23;24.20;66.50
52273;DHT22;38227;50.942;4.016;2023-05-20T15:29:01;24.10;66.90
52273;DHT22;38227;50.942;4.016;2023-05-20T15:31:29;23.90;67.30
52273;DHT22;38227;50.942;4.016;2023-05-20T15:34:07;24.00;67.00
52273;DHT22;38227;50.942;4.016;2023-05-20T15:36:36;24.30;66.20
52273;DHT22;38227;50.942;4.016;2023-05-20T15:39:08;24.20;65.70
52273;DHT22;38227;50.942;4.016;2023-05-20T15:41:36;24.20;66.10
52273;DHT22;38227;50.942;4.016;2023-05-20T15:44:16;24.10;66.80
52273;DHT22;38227;50.942;4.016;2023-05-20T15:46:45;24.10;67.30
52273;DHT22;38227;50.942;4.016;2023-05-20T15:49:23;24.10;67.90
52273;DHT22;38227;50.942;4.016;2023-05-20T15:51:52;23.90;68.10
52273;DHT22;38227;50.942;4.016;2023-05-20T15:54:21;24.00;67.90
52273;DHT22;38227;50.942;4.016;2023-05-20T15:56:52;23.80;69.40
52273;DHT22;38227;50.942;4.016;2023-05-20T15:59:22;23.80;68.30
52273;DHT22;38227;50.942;4.016;2023-05-20T16:02:00;23.90;68.50
52273;DHT22;38227;50.942;4.016;2023-05-20T16:04:30;23.90;67.30
52273;DHT22;38227;50.942;4.016;2023-05-20T16:07:02;23.90;68.40